Погода METAR - Новосибирск (Толмачево)

Кемерово, Абакан, Красноярск, Новосибирск
Код METAR: UNNT 191630Z 17002MPS 120V260 9000 NSC M17/M19 Q1026 R25/190050 R16/810260 NOSIG RMK QFE759/1013

Погода - Сейчас

Время: 2022-01-19 23:30, местное
Направление ветра: Юг (170°)
Скорость ветра: 2 м/с
Видимость:
Температура: -17°C
Точка росы: -19°C
Атмосферное давление: 1026 гПа

Архив погоды

Время, местное Направление Скорость, м/с Температура, °C Точка росы, °C Давление, гПа
2022-01-19 23:30 Ю (170°) 2 -17 -19 1026
2022-01-19 09:30 Ю (170°) 3 -15 -17 1026
2022-01-19 04:30 ЮЮВ (160°) 4 -14 -16 1026
2022-01-18 00:30 ЮЮЗ (200°) 5 -10 -14 1020
2022-01-15 19:00 ЮВ (130°) 6 -5 -7 1004
2022-01-15 08:30 ЮВ (140°) 2 -12 -14 1013
2022-01-14 10:00 СВ (40°) 1 -31 -34 1026
2022-01-13 19:00 Штиль 0 -23 -26 1028
2022-01-13 18:30 ЗЮЗ (250°) 1 -23 -25 1027
2022-01-13 04:00 СЗ (320°) 2 -24 -26 1022
2022-01-12 21:30 С (350°) 2 -15 -18 1021
2022-01-12 10:30 Ю (170°) 4 -17 -20 1024
2022-01-12 03:00 Ю (170°) 4 -16 -18 1028
2022-01-11 01:00 Ю (180°) 4 -16 -18 1040
2022-01-08 21:30 Ю (180°) 8 -1 -2 1020
2022-01-08 14:30 ЮЮВ (160°) 8 -7 -9 1023
2022-01-07 15:30 Штиль 0 -14 -16 1031
2022-01-07 11:00 Штиль 0 -17 -18 1033
2022-01-07 05:30 ЮЮВ (160°) 3 -13 -16 1033
2022-01-06 07:00 ЮЗ (230°) 4 -13 -17 1026
2022-01-06 02:00 ЮЗ (220°) 5 -13 -16 1023
2022-01-05 17:00 ЗЮЗ (250°) 4 -10 -14 1019
2022-01-05 06:30 ЗЮЗ (250°) 5 -3 -6 1010
2022-01-01 16:00 Переменный 1 -15 -20 1026
2021-12-31 14:00 ЮЮЗ (200°) 5 -19 -22 1036
2021-12-31 02:00 Ю (180°) 3 -25 -28 1039
2021-12-30 22:30 ЮЮЗ (200°) 3 -23 -26 1038
2021-12-30 17:30 ЮЗ (230°) 5 -21 -24 1035
2021-12-30 08:00 ЗЮЗ (260°) 4 -17 -19 1025
2021-12-30 06:30 СЗ (300°) 5 -15 -17 1024
2021-12-28 12:00 Ю (170°) 6 -13 -16 1033
2021-12-26 08:00 С (360°) 2 -9 -11 1031
2021-12-26 05:30 С (360°) 3 -9 -11 1030
2021-12-24 10:30 ЮЮВ (160°) 7 0 -6 1023
2021-12-24 09:30 ЮЮВ (150°) 7 0 -6 1023
2021-12-24 05:30 ЮЮВ (150°) 6 1 -1 1022
2021-12-23 16:30 ЮВ (140°) 5 -5 -9 1020
2021-12-23 13:30 ЮЮВ (150°) 7 -6 -10 1019
2021-12-20 19:00 ЗСЗ (290°) 2 -9 -10 1015
2021-12-20 10:00 ЮВ (120°) 3 -5 -6 1007
2021-12-19 23:30 СВ (50°) 4 -7 -10 1011
2021-12-19 22:30 ВСВ (70°) 4 -8 -10 1012
2021-12-19 06:00 СЗ (300°) 3 -7 -11 1018
2021-12-19 02:00 З (280°) 4 -6 -9 1016
2021-12-18 17:00 ЗЮЗ (250°) 4 -3 -4 1011
2021-12-18 00:30 ЗЮЗ (250°) 9 -2 -5 1011
2021-12-17 07:30 ЮЮЗ (200°) 5 -6 -8 1019
2021-12-16 02:30 Ю (180°) 5 -9 -12 1022